Nearby METAR Reports

 

YSRI - Richmond (aus-Af, Australia
Distance from station: WSW 35km
Updated: 25/11/2017 18:00
Clear
Clear
 Wind from ENE
Wind: ENE 20 km/h
Temperature: 27°C
Heat Index: 27°C
Dew Point: 15°C
Humidity: 48%
Barometer: 1014 hPa
Clouds: Clear
Visibility: 10 km
2017/11/25 07:00 YSRI 250700Z AUTO 06011KT 9999 // NCD 27/15 Q1014
YSSY - Sydney Intl Airp, Australia
Distance from station: S 47km
Updated: 25/11/2017 18:00
Few Clouds
Few Clouds
 Wind from ENE
Wind: ENE 33 km/h
Temperature: 24°C
Dew Point: 18°C
Humidity: 69%
Barometer: 1015 hPa
Clouds: Few Clouds
Visibility: 10 km
Cloud details: Few Clouds 549 m
2017/11/25 07:00 YSSY 250700Z 06018KT 9999 FEW018 24/18 Q1015 NOSIG
YWLM - Williamtown Arp, Australia
Distance from station: NE 104km
Updated: 25/11/2017 18:00
Clear
Clear
 Wind from ENE
Wind: ENE 22 km/h
Temperature: 25°C
Dew Point: 17°C
Humidity: 61%
Barometer: 1015 hPa
Clouds: Clear
Visibility: 10 km
2017/11/25 07:00 YWLM 250700Z AUTO 07012KT 9999 // NCD 25/17 Q1015
 
YSNW - Nowra (aus-Navy), Australia
Distance from station: SSW 168km
Updated: 25/11/2017 18:00
Clear
Clear
 Wind from ENE
Wind: ENE 28 km/h
Temperature: 23°C
Dew Point: 18°C
Humidity: 74%
Barometer: 1015 hPa
Clouds: Clear
Visibility: 10 km
2017/11/25 07:00 YSNW 250700Z AUTO 07015KT 9999 // NCD 23/18 Q1015
YMDG - Mudgee Arpt, Australia
Distance from station: NW 177km
Updated: 25/11/2017 18:00
Partly cloudy
Partly cloudy
 Wind from NNE
Wind: NNE 17 km/h
Temperature: 30°C
Dew Point: 10°C
Humidity: 29%
Barometer: 1013 hPa
Clouds: Partly cloudy
Visibility: 10 km
Cloud details: Partly cloudy 3048 m
2017/11/25 07:00 YMDG 250700Z AUTO 03009KT 010V070 9999 // SCT100 30/10 Q1013
YTRE - Taree Airport, Australia
Distance from station: NE 224km
Updated: 25/11/2017 18:00
Partly cloudy
Partly cloudy
 Wind from ENE
Wind: ENE 24 km/h
Temperature: 24°C
Dew Point: 18°C
Humidity: 69%
Barometer: 1015 hPa
Clouds: Partly cloudy
Visibility: 10 km
Cloud details: Partly cloudy 732 m
2017/11/25 07:00 YTRE 250700Z AUTO 07013KT 9999 // SCT024 24/18 Q1015
 
YSCB - Canberra (civ/Mi, Australia
Distance from station: SW 265km
Updated: 25/11/2017 18:00
Few Clouds
Few Clouds
 Wind from E
Wind: E 30 km/h
Temperature: 27°C
Dew Point: 11°C
Humidity: 37%
Barometer: 1015 hPa
Clouds: Few Clouds
Visibility: 10 km
Cloud details: Partly cloudy 1372 m
Few Clouds 1372 m
2017/11/25 07:00 YSCB 250700Z 09016KT 9999 SCT045 FEW045TCU 27/11 Q1015
YSTW - Tamworth Airport, Australia
Distance from station: N 275km
Updated: 25/11/2017 18:00
Clear
Clear
 Wind from E
Wind: E 6 km/h
Temperature: 32°C
Dew Point: 2°C
Humidity: 15%
Barometer: 1012 hPa
Clouds: Clear
Visibility: 10 km
2017/11/25 07:00 YSTW 250700Z AUTO 09003KT 9999 // NCD 32/02 Q1012
YSDU - Dubbo, Australia
Distance from station: WNW 280km
Updated: 25/11/2017 18:00
Clear
Clear
 Wind from ENE
Wind: ENE 20 km/h
Temperature: 33°C
Dew Point: 7°C
Humidity: 20%
Barometer: 1011 hPa
Clouds: Clear
Visibility: 10 km
2017/11/25 07:00 YSDU 250700Z AUTO 06011KT 9999 // NCD 33/07 Q1011
 
YPMQ - Port Macquarie, Australia
Distance from station: NE 284km
Updated: 25/11/2017 05:21
NOT Current
Clear
Clear
 Wind from calm
Wind: Calm
Temperature: 13°C
Dew Point: 13°C
Humidity: 100%
Barometer: 1016 hPa
Clouds: Clear
Visibility: 10 km
2017/11/24 18:21 YPMQ 241821Z AUTO 00000KT 9999 // NCD 13/13 Q1016
YCBB - Coonabarabran, Australia
Distance from station: NW 300km
Updated: 25/11/2017 18:00

 Wind from N
Wind: N 22 km/h
Temperature: 24°C
Dew Point: 11°C
Humidity: 44%
Barometer: 1014 hPa
2017/11/25 07:00 YCBB 250700Z AUTO 36012KT //// // ////// 24/11 Q1014